Time;durP1;ratioP1;P1;durP2;ratioP2;P2;SDS_P1;SDS_P2;PMS_P1;PMS_P2;Temp;Humidity;BMP_temperature;BMP_pressure;BME280_temperature;BME280_humidity;BME280_pressure;Samples;Min_cycle;Max_cycle;Signal;HPM_P1;HPM_P2
2022/11/14 00:01:22;;;;;;;10.90;5.03;;;;;;;;;;5051278;28;20040;-41
2022/11/14 00:04:06;;;;;;;10.95;5.80;;;;;;;;;;5051575;28;20043;-41
2022/11/14 00:06:50;;;;;;;8.63;4.95;;;;;;;;;;5051361;28;20094;-41
2022/11/14 00:09:33;;;;;;;10.55;5.32;;;;;;;;;;5051169;28;20121;-41
2022/11/14 00:12:17;;;;;;;9.07;5.57;;;;;;;;;;5051435;28;20094;-41
2022/11/14 00:15:01;;;;;;;12.73;6.15;;;;;;;;;;5051386;28;20095;-41
2022/11/14 00:17:45;;;;;;;11.40;5.20;;;;;;;;;;5051125;28;20043;-41
2022/11/14 00:20:30;;;;;;;9.15;5.07;;;;;;;;;;5051105;28;20044;-41
2022/11/14 00:23:14;;;;;;;10.02;5.60;;;;;;;;;;5051153;28;20087;-41
2022/11/14 00:25:58;;;;;;;7.68;5.13;;;;;;;;;;5051307;28;20659;-41
2022/11/14 00:28:42;;;;;;;11.00;5.63;;;;;;;;;;5050339;28;20048;-41
2022/11/14 00:31:26;;;;;;;10.38;5.70;;;;;;;;;;5050923;28;20067;-40
2022/11/14 00:34:10;;;;;;;14.18;6.43;;;;;;;;;;5051273;28;20035;-41
2022/11/14 00:36:54;;;;;;;11.27;4.95;;;;;;;;;;5051340;28;20422;-41
2022/11/14 00:39:37;;;;;;;15.02;6.45;;;;;;;;;;5054029;28;20043;-40
2022/11/14 00:42:21;;;;;;;9.90;5.68;;;;;;;;;;5054964;28;20052;-40
2022/11/14 00:45:05;;;;;;;12.18;5.95;;;;;;;;;;5054872;28;20044;-40
2022/11/14 00:47:49;;;;;;;9.60;4.80;;;;;;;;;;5054936;28;20079;-41
2022/11/14 00:50:33;;;;;;;7.63;4.40;;;;;;;;;;5054921;28;20078;-41
2022/11/14 00:53:17;;;;;;;10.73;4.93;;;;;;;;;;5054621;28;20394;-41
2022/11/14 00:56:01;;;;;;;11.00;5.03;;;;;;;;;;5055089;28;20478;-42
2022/11/14 00:58:45;;;;;;;10.45;5.45;;;;;;;;;;5054683;28;20090;-41
2022/11/14 01:01:29;;;;;;;11.10;4.93;;;;;;;;;;5054452;28;20175;-40
2022/11/14 01:04:13;;;;;;;11.82;5.00;;;;;;;;;;5054552;28;20501;-41
2022/11/14 01:06:57;;;;;;;9.80;5.25;;;;;;;;;;5054838;28;20398;-41
2022/11/14 01:09:41;;;;;;;7.40;5.53;;;;;;;;;;5054376;28;20518;-41
2022/11/14 01:12:25;;;;;;;8.65;4.93;;;;;;;;;;5054597;28;20059;-41
2022/11/14 01:15:09;;;;;;;9.20;4.25;;;;;;;;;;5054671;28;20032;-41
2022/11/14 01:17:53;;;;;;;14.07;5.28;;;;;;;;;;5054439;28;20039;-40
2022/11/14 01:20:38;;;;;;;8.40;3.90;;;;;;;;;;5054327;28;20146;-41
2022/11/14 01:23:22;;;;;;;11.10;5.20;;;;;;;;;;5054435;28;20089;-40
2022/11/14 01:26:08;;;;;;;9.63;4.97;;;;;;;;;;5054518;28;20075;-41
2022/11/14 01:28:52;;;;;;;9.13;4.68;;;;;;;;;;5053273;28;20056;-41
2022/11/14 01:31:36;;;;;;;7.63;4.28;;;;;;;;;;5054099;28;20091;-41
2022/11/14 01:34:20;;;;;;;13.15;5.28;;;;;;;;;;5054290;28;20055;-41
2022/11/14 01:37:03;;;;;;;7.72;4.38;;;;;;;;;;5053914;28;20055;-41
2022/11/14 01:39:47;;;;;;;6.07;4.10;;;;;;;;;;5054236;28;20086;-41
2022/11/14 01:42:31;;;;;;;8.02;4.72;;;;;;;;;;5053919;28;20058;-41
2022/11/14 01:45:34;;;;;;;9.90;3.90;;;;;;;;;;5053790;28;20075;-41
2022/11/14 01:48:21;;;;;;;8.33;4.27;;;;;;;;;;5053666;28;20131;-41
2022/11/14 01:51:11;;;;;;;8.32;4.63;;;;;;;;;;5052741;28;20133;-41
2022/11/14 01:53:56;;;;;;;6.80;4.20;;;;;;;;;;5053763;28;20111;-40
2022/11/14 01:56:43;;;;;;;9.27;3.38;;;;;;;;;;5053942;28;20044;-41
2022/11/14 01:59:30;;;;;;;7.50;3.97;;;;;;;;;;5053389;28;20052;-40
2022/11/14 02:02:19;;;;;;;9.68;4.28;;;;;;;;;;5053484;28;20056;-40
2022/11/14 02:05:05;;;;;;;12.82;4.50;;;;;;;;;;5053704;28;20079;-41
2022/11/14 02:07:50;;;;;;;8.80;4.85;;;;;;;;;;5053758;28;20091;-41
2022/11/14 02:10:34;;;;;;;6.78;3.83;;;;;;;;;;5053376;28;20407;-41
2022/11/14 02:13:18;;;;;;;9.55;5.20;;;;;;;;;;5053513;28;20506;-41
2022/11/14 02:16:02;;;;;;;10.02;4.45;;;;;;;;;;5053597;28;20032;-40
2022/11/14 02:18:46;;;;;;;7.93;3.92;;;;;;;;;;5053322;28;20086;-41
2022/11/14 02:21:30;;;;;;;6.22;3.83;;;;;;;;;;5053508;28;20447;-40
2022/11/14 02:24:14;;;;;;;9.70;4.60;;;;;;;;;;5053387;28;20052;-41
2022/11/14 02:26:58;;;;;;;11.45;4.93;;;;;;;;;;5052984;28;20096;-40
2022/11/14 02:29:41;;;;;;;8.48;3.60;;;;;;;;;;5053156;28;20094;-40
2022/11/14 02:32:25;;;;;;;9.32;4.30;;;;;;;;;;5052907;28;20036;-41
2022/11/14 02:35:10;;;;;;;4.47;3.50;;;;;;;;;;5052868;28;20068;-41
2022/11/14 02:37:53;;;;;;;6.07;3.17;;;;;;;;;;5053063;28;20127;-41
2022/11/14 02:40:37;;;;;;;10.95;4.43;;;;;;;;;;5051731;28;20036;-41
2022/11/14 02:43:21;;;;;;;8.02;4.43;;;;;;;;;;5052719;28;20067;-41
2022/11/14 02:46:05;;;;;;;8.98;3.95;;;;;;;;;;5052915;28;20613;-41
2022/11/14 02:48:49;;;;;;;8.63;4.50;;;;;;;;;;5052435;28;20514;-43
2022/11/14 02:51:33;;;;;;;9.18;4.18;;;;;;;;;;5052497;28;20048;-40
2022/11/14 02:54:17;;;;;;;8.02;4.00;;;;;;;;;;5052381;28;20143;-40
2022/11/14 02:57:01;;;;;;;4.75;3.17;;;;;;;;;;5052641;28;20044;-42
2022/11/14 02:59:45;;;;;;;8.75;4.03;;;;;;;;;;5052442;28;20040;-41
2022/11/14 03:02:29;;;;;;;9.02;3.75;;;;;;;;;;5052413;28;20119;-41
2022/11/14 03:05:13;;;;;;;8.82;3.90;;;;;;;;;;5052538;28;20040;-40
2022/11/14 03:07:57;;;;;;;7.95;3.33;;;;;;;;;;5052286;28;20056;-41
2022/11/14 03:10:41;;;;;;;11.63;4.47;;;;;;;;;;5052127;28;20056;-41
2022/11/14 03:13:27;;;;;;;6.85;4.22;;;;;;;;;;5052386;28;20037;-40
2022/11/14 03:16:12;;;;;;;8.30;4.78;;;;;;;;;;5052206;28;20079;-41
2022/11/14 03:18:56;;;;;;;7.10;3.55;;;;;;;;;;5052332;28;20446;-41
2022/11/14 03:21:40;;;;;;;6.30;4.13;;;;;;;;;;5052031;28;20047;-42
2022/11/14 03:24:24;;;;;;;6.82;3.35;;;;;;;;;;5051947;28;20134;-41
2022/11/14 03:27:08;;;;;;;5.28;3.33;;;;;;;;;;5052019;28;20542;-41
2022/11/14 03:29:52;;;;;;;7.28;4.15;;;;;;;;;;5051726;28;20442;-41
2022/11/14 03:32:36;;;;;;;6.25;3.42;;;;;;;;;;5051879;28;20417;-41
2022/11/14 03:35:20;;;;;;;6.95;3.80;;;;;;;;;;5052047;28;20063;-41
2022/11/14 03:38:04;;;;;;;6.75;3.45;;;;;;;;;;5051649;28;20047;-40
2022/11/14 03:40:49;;;;;;;6.60;3.20;;;;;;;;;;5051774;28;20526;-41
2022/11/14 03:43:33;;;;;;;5.85;3.08;;;;;;;;;;5051853;28;20051;-40
2022/11/14 03:46:16;;;;;;;6.07;3.15;;;;;;;;;;5051815;28;20189;-40
2022/11/14 03:49:00;;;;;;;4.85;3.38;;;;;;;;;;5051443;28;20814;-41
2022/11/14 03:51:44;;;;;;;4.57;3.03;;;;;;;;;;5051470;28;20060;-41
2022/11/14 03:54:28;;;;;;;9.38;3.47;;;;;;;;;;5051453;28;20099;-40
2022/11/14 03:57:12;;;;;;;5.20;3.08;;;;;;;;;;5051473;28;20124;-41
2022/11/14 03:59:56;;;;;;;6.18;3.30;;;;;;;;;;5051398;28;20048;-40
2022/11/14 04:02:40;;;;;;;7.03;3.53;;;;;;;;;;5051711;28;20062;-40
2022/11/14 04:05:24;;;;;;;6.47;3.47;;;;;;;;;;5051521;28;20151;-41
2022/11/14 04:08:08;;;;;;;8.98;4.78;;;;;;;;;;5051614;28;20072;-41
2022/11/14 04:10:52;;;;;;;5.57;3.65;;;;;;;;;;5051320;28;20047;-40
2022/11/14 04:13:36;;;;;;;6.28;3.65;;;;;;;;;;5050853;28;20075;-41
2022/11/14 04:16:20;;;;;;;6.03;3.38;;;;;;;;;;5051286;28;20043;-43
2022/11/14 04:19:04;;;;;;;5.60;3.10;;;;;;;;;;5051500;28;20513;-41
2022/11/14 04:21:48;;;;;;;8.48;3.80;;;;;;;;;;5051183;28;20086;-41
2022/11/14 04:24:32;;;;;;;7.57;3.70;;;;;;;;;;5051208;28;20044;-41
2022/11/14 04:27:16;;;;;;;5.95;4.05;;;;;;;;;;5051379;28;20095;-40
2022/11/14 04:29:59;;;;;;;7.63;3.85;;;;;;;;;;5050988;28;20043;-40
2022/11/14 04:32:44;;;;;;;4.63;2.70;;;;;;;;;;5051427;28;20068;-41
2022/11/14 04:35:28;;;;;;;5.72;3.08;;;;;;;;;;5050961;28;20110;-40
2022/11/14 04:38:12;;;;;;;3.10;2.55;;;;;;;;;;5051075;28;20043;-41
2022/11/14 04:40:56;;;;;;;5.28;3.38;;;;;;;;;;5051029;28;20071;-41
2022/11/14 04:43:40;;;;;;;4.70;3.58;;;;;;;;;;5051305;28;20044;-41
2022/11/14 04:46:24;;;;;;;5.05;3.60;;;;;;;;;;5051221;28;20067;-44
2022/11/14 04:49:08;;;;;;;6.85;3.17;;;;;;;;;;5050698;28;20590;-41
2022/11/14 04:51:51;;;;;;;7.00;3.83;;;;;;;;;;5050980;28;20548;-41
2022/11/14 04:54:35;;;;;;;5.97;3.90;;;;;;;;;;5050947;28;20040;-41
2022/11/14 04:57:19;;;;;;;3.88;2.65;;;;;;;;;;5050832;28;20044;-41
2022/11/14 05:00:04;;;;;;;6.05;2.80;;;;;;;;;;5051194;28;20076;-41
2022/11/14 05:02:48;;;;;;;6.18;3.83;;;;;;;;;;5050818;28;20040;-40
2022/11/14 05:05:32;;;;;;;6.20;3.38;;;;;;;;;;5050737;28;20103;-40
2022/11/14 05:08:16;;;;;;;6.97;4.47;;;;;;;;;;5050762;28;20043;-41
2022/11/14 05:11:00;;;;;;;5.82;3.03;;;;;;;;;;5050694;28;20087;-41
2022/11/14 05:13:44;;;;;;;5.82;3.47;;;;;;;;;;5050709;28;20142;-41
2022/11/14 05:16:28;;;;;;;6.03;3.67;;;;;;;;;;5050677;28;20122;-41
2022/11/14 05:19:11;;;;;;;5.95;3.38;;;;;;;;;;5051006;28;20075;-41
2022/11/14 05:21:55;;;;;;;6.95;3.30;;;;;;;;;;5050678;28;20040;-41
2022/11/14 05:24:39;;;;;;;9.93;4.43;;;;;;;;;;5049780;28;20094;-40
2022/11/14 05:27:23;;;;;;;8.45;3.33;;;;;;;;;;5054217;28;20545;-41
2022/11/14 05:30:08;;;;;;;6.75;3.17;;;;;;;;;;5053319;28;20533;-41
2022/11/14 05:32:52;;;;;;;8.25;3.58;;;;;;;;;;5054358;28;20040;-40
2022/11/14 05:35:36;;;;;;;7.03;3.50;;;;;;;;;;5054095;28;20052;-41
2022/11/14 05:38:20;;;;;;;4.82;3.28;;;;;;;;;;5053930;28;20113;-41
2022/11/14 05:41:07;;;;;;;13.50;4.22;;;;;;;;;;5054211;28;20122;-40
2022/11/14 05:43:51;;;;;;;5.47;2.83;;;;;;;;;;5054248;28;20051;-40
2022/11/14 05:46:35;;;;;;;8.40;3.55;;;;;;;;;;5054059;28;20048;-40
2022/11/14 05:49:19;;;;;;;5.78;3.00;;;;;;;;;;5053520;28;20051;-41
2022/11/14 05:52:03;;;;;;;8.20;4.50;;;;;;;;;;5053778;28;20040;-40
2022/11/14 05:54:47;;;;;;;6.07;3.40;;;;;;;;;;5053991;28;20057;-41
2022/11/14 05:57:31;;;;;;;6.57;3.47;;;;;;;;;;5053853;28;20083;-40
2022/11/14 06:00:15;;;;;;;8.43;3.88;;;;;;;;;;5053553;28;20067;-41
2022/11/14 06:02:59;;;;;;;7.57;4.57;;;;;;;;;;5053898;28;20501;-40
2022/11/14 06:05:43;;;;;;;5.47;3.13;;;;;;;;;;5052490;28;20048;-40
2022/11/14 06:08:28;;;;;;;8.40;3.50;;;;;;;;;;5053541;28;20095;-41
2022/11/14 06:11:18;;;;;;;8.13;4.40;;;;;;;;;;5053405;28;20047;-40
2022/11/14 06:14:02;;;;;;;7.15;3.05;;;;;;;;;;5053491;28;20120;-41
2022/11/14 06:16:46;;;;;;;8.52;3.70;;;;;;;;;;5053835;28;20060;-41
2022/11/14 06:19:30;;;;;;;6.63;4.10;;;;;;;;;;5053164;28;20040;-40
2022/11/14 06:22:14;;;;;;;6.18;3.05;;;;;;;;;;5053202;28;20106;-41
2022/11/14 06:24:58;;;;;;;7.75;3.42;;;;;;;;;;5053119;28;20040;-41
2022/11/14 06:27:42;;;;;;;9.40;3.42;;;;;;;;;;5052623;28;20087;-41
2022/11/14 06:30:26;;;;;;;5.68;3.42;;;;;;;;;;5053121;28;20427;-40
2022/11/14 06:33:10;;;;;;;7.60;3.78;;;;;;;;;;5053038;28;20040;-40
2022/11/14 06:35:58;;;;;;;5.30;3.20;;;;;;;;;;5052678;28;20073;-40
2022/11/14 06:38:42;;;;;;;7.97;4.55;;;;;;;;;;5053152;28;20067;-41
2022/11/14 06:41:26;;;;;;;3.70;3.00;;;;;;;;;;5053086;28;20036;-40
2022/11/14 06:44:10;;;;;;;5.72;4.07;;;;;;;;;;5052982;28;20047;-40
2022/11/14 06:46:55;;;;;;;6.10;4.03;;;;;;;;;;5053055;28;20079;-40
2022/11/14 06:49:39;;;;;;;6.65;3.80;;;;;;;;;;5051485;28;20047;-40
2022/11/14 06:52:26;;;;;;;8.93;3.47;;;;;;;;;;5052591;28;20070;-41
2022/11/14 06:55:10;;;;;;;6.35;3.33;;;;;;;;;;5052867;28;20043;-40
2022/11/14 06:57:54;;;;;;;5.65;3.80;;;;;;;;;;5052743;28;20043;-40
2022/11/14 07:00:38;;;;;;;6.30;3.20;;;;;;;;;;5052693;28;20655;-40
2022/11/14 07:03:22;;;;;;;6.43;3.92;;;;;;;;;;5052284;28;20565;-40
2022/11/14 07:06:07;;;;;;;6.28;3.85;;;;;;;;;;5052646;28;20036;-40
2022/11/14 07:08:52;;;;;;;6.00;3.28;;;;;;;;;;5052644;28;20090;-40
2022/11/14 07:11:37;;;;;;;4.53;3.13;;;;;;;;;;5052051;28;20564;-40
2022/11/14 07:14:20;;;;;;;8.43;4.13;;;;;;;;;;5052190;28;20055;-40
2022/11/14 07:17:04;;;;;;;6.53;3.15;;;;;;;;;;5051945;28;20110;-40
2022/11/14 07:19:49;;;;;;;5.80;2.90;;;;;;;;;;5052262;28;20493;-40
2022/11/14 07:22:33;;;;;;;5.45;4.00;;;;;;;;;;5052055;28;20454;-40
2022/11/14 07:25:19;;;;;;;6.95;3.30;;;;;;;;;;5051962;28;20486;-41
2022/11/14 07:28:04;;;;;;;6.55;3.05;;;;;;;;;;5051170;28;20114;-40
2022/11/14 07:30:48;;;;;;;7.70;3.58;;;;;;;;;;5051885;28;20103;-40
2022/11/14 07:33:33;;;;;;;6.55;4.28;;;;;;;;;;5051814;28;20075;-41
2022/11/14 07:36:17;;;;;;;6.50;4.05;;;;;;;;;;5051861;28;20627;-40
2022/11/14 07:39:00;;;;;;;5.88;3.53;;;;;;;;;;5051931;28;20075;-40
2022/11/14 07:41:46;;;;;;;6.18;3.40;;;;;;;;;;5051816;28;20040;-40
2022/11/14 07:44:31;;;;;;;7.20;3.80;;;;;;;;;;5051937;28;20052;-40
2022/11/14 07:47:15;;;;;;;5.30;3.65;;;;;;;;;;5050974;28;20056;-40
2022/11/14 07:49:59;;;;;;;6.55;4.10;;;;;;;;;;5051637;28;20039;-40
2022/11/14 07:52:43;;;;;;;5.25;3.40;;;;;;;;;;5051646;28;20047;-40
2022/11/14 07:55:27;;;;;;;5.90;3.25;;;;;;;;;;5051673;28;20402;-40
2022/11/14 07:58:11;;;;;;;7.13;2.90;;;;;;;;;;5051487;28;20079;-40
2022/11/14 08:00:55;;;;;;;6.32;3.50;;;;;;;;;;5051711;28;20048;-40
2022/11/14 08:03:39;;;;;;;5.80;3.72;;;;;;;;;;5050469;28;20116;-40
2022/11/14 08:06:24;;;;;;;7.53;3.78;;;;;;;;;;5050636;28;20063;-40
2022/11/14 08:09:09;;;;;;;7.20;3.97;;;;;;;;;;5051542;28;20040;-40
2022/11/14 08:11:53;;;;;;;3.72;2.45;;;;;;;;;;5051271;28;20044;-40
2022/11/14 08:14:37;;;;;;;3.75;2.67;;;;;;;;;;5051408;28;20041;-40
2022/11/14 08:17:22;;;;;;;6.60;4.28;;;;;;;;;;5050238;28;20051;-40
2022/11/14 08:20:07;;;;;;;5.80;2.92;;;;;;;;;;5051855;28;20390;-40
2022/11/14 08:22:52;;;;;;;4.45;3.22;;;;;;;;;;5051395;28;20491;-40
2022/11/14 08:25:36;;;;;;;5.07;2.78;;;;;;;;;;5051101;28;20048;-40
2022/11/14 08:28:20;;;;;;;12.27;5.05;;;;;;;;;;5051318;28;20052;-41
2022/11/14 08:31:05;;;;;;;5.75;3.88;;;;;;;;;;5051499;28;20113;-40
2022/11/14 08:33:50;;;;;;;4.35;2.90;;;;;;;;;;5051381;28;20087;-40
2022/11/14 08:36:34;;;;;;;3.60;2.50;;;;;;;;;;5051331;28;20086;-40
2022/11/14 08:39:18;;;;;;;6.95;3.13;;;;;;;;;;5050271;28;20501;-40
2022/11/14 08:42:02;;;;;;;6.13;3.38;;;;;;;;;;5051072;28;20043;-40
2022/11/14 08:44:47;;;;;;;5.85;2.85;;;;;;;;;;5051313;28;20048;-40
2022/11/14 08:47:31;;;;;;;7.10;2.85;;;;;;;;;;5051014;28;20096;-41
2022/11/14 08:50:15;;;;;;;6.53;3.30;;;;;;;;;;5051074;28;20052;-40
2022/11/14 08:52:59;;;;;;;6.32;3.55;;;;;;;;;;5051003;28;20452;-41
2022/11/14 08:55:46;;;;;;;10.30;3.85;;;;;;;;;;5051189;28;20470;-41
2022/11/14 08:58:30;;;;;;;6.35;3.17;;;;;;;;;;5050944;28;20115;-40
2022/11/14 09:01:14;;;;;;;7.20;3.38;;;;;;;;;;5054977;28;20111;-40
2022/11/14 09:03:59;;;;;;;4.20;3.22;;;;;;;;;;5054961;28;20170;-40
2022/11/14 09:06:44;;;;;;;4.32;3.00;;;;;;;;;;5054618;28;20040;-41
2022/11/14 09:09:28;;;;;;;9.27;3.35;;;;;;;;;;5054642;28;20063;-40
2022/11/14 09:12:12;;;;;;;2.45;2.08;;;;;;;;;;5054583;28;20067;-42
2022/11/14 09:14:56;;;;;;;6.65;2.67;;;;;;;;;;5054821;28;20036;-41
2022/11/14 09:17:40;;;;;;;7.68;3.25;;;;;;;;;;5054272;28;20142;-41
2022/11/14 09:20:25;;;;;;;7.22;3.53;;;;;;;;;;5054589;28;20079;-40
2022/11/14 09:23:09;;;;;;;6.18;3.72;;;;;;;;;;5054661;28;20040;-41
2022/11/14 09:25:53;;;;;;;7.55;3.53;;;;;;;;;;5054467;28;20118;-40
2022/11/14 09:28:37;;;;;;;5.40;3.10;;;;;;;;;;5054133;28;20190;-40
2022/11/14 09:31:21;;;;;;;4.88;3.35;;;;;;;;;;5054184;28;20052;-41
2022/11/14 09:34:05;;;;;;;5.82;3.88;;;;;;;;;;5054053;28;20045;-41
2022/11/14 09:36:49;;;;;;;5.35;3.13;;;;;;;;;;5054316;28;20506;-41
2022/11/14 09:39:36;;;;;;;7.07;3.40;;;;;;;;;;5053992;28;20063;-41
2022/11/14 09:42:27;;;;;;;7.72;3.33;;;;;;;;;;5054177;28;20390;-41
2022/11/14 09:45:12;;;;;;;9.68;4.03;;;;;;;;;;5052862;28;20510;-40
2022/11/14 09:48:03;;;;;;;5.97;2.97;;;;;;;;;;5053789;28;20056;-43
2022/11/14 09:50:52;;;;;;;8.35;3.70;;;;;;;;;;5054002;28;20071;-40
2022/11/14 09:53:42;;;;;;;10.95;4.20;;;;;;;;;;5053689;28;20413;-40
2022/11/14 09:56:27;;;;;;;8.07;3.70;;;;;;;;;;5053876;28;20098;-40
2022/11/14 09:59:12;;;;;;;5.57;2.97;;;;;;;;;;5054219;28;20032;-40
2022/11/14 10:02:25;;;;;;;5.68;3.25;;;;;;;;;;5053879;28;20067;-40
2022/11/14 10:05:20;;;;;;;6.15;4.03;;;;;;;;;;5053396;28;20106;-40
2022/11/14 10:08:25;;;;;;;4.40;2.58;;;;;;;;;;5053707;28;20052;-40
2022/11/14 10:11:14;;;;;;;6.18;2.80;;;;;;;;;;5052711;28;20040;-40
2022/11/14 10:14:01;;;;;;;9.30;4.90;;;;;;;;;;5053471;28;20060;-40
2022/11/14 10:16:45;;;;;;;12.98;4.03;;;;;;;;;;5053432;28;20051;-41
2022/11/14 10:19:48;;;;;;;5.03;3.88;;;;;;;;;;5053217;28;20048;-41
2022/11/14 10:22:41;;;;;;;6.80;3.43;;;;;;;;;;5053180;28;20094;-41
2022/11/14 10:25:44;;;;;;;6.50;3.70;;;;;;;;;;5053467;28;20052;-41
2022/11/14 10:28:40;;;;;;;7.17;3.60;;;;;;;;;;5053119;28;20548;-41
2022/11/14 10:31:34;;;;;;;5.57;3.00;;;;;;;;;;5052912;28;20355;-40
2022/11/14 10:34:28;;;;;;;4.57;3.42;;;;;;;;;;5053100;28;20036;-40
2022/11/14 10:37:11;;;;;;;5.22;3.42;;;;;;;;;;5053132;28;20128;-41
2022/11/14 10:40:14;;;;;;;5.90;3.60;;;;;;;;;;5053140;28;20113;-41
2022/11/14 10:43:06;;;;;;;5.90;3.22;;;;;;;;;;5053110;28;20536;-40
2022/11/14 10:45:52;;;;;;;7.82;3.25;;;;;;;;;;5052783;28;20089;-41
2022/11/14 10:48:39;;;;;;;5.85;3.50;;;;;;;;;;5052508;28;20056;-41
2022/11/14 10:51:36;;;;;;;6.97;3.45;;;;;;;;;;5052561;28;20482;-41
2022/11/14 10:54:23;;;;;;;6.00;3.42;;;;;;;;;;5052615;28;20442;-41
2022/11/14 10:57:13;;;;;;;9.50;3.65;;;;;;;;;;5052827;28;20044;-41
2022/11/14 10:59:57;;;;;;;6.70;3.47;;;;;;;;;;5052820;28;20044;-41
2022/11/14 11:02:55;;;;;;;8.05;5.00;;;;;;;;;;5052403;28;20513;-41
2022/11/14 11:05:49;;;;;;;9.38;2.85;;;;;;;;;;5051214;28;20059;-40
2022/11/14 11:11:50;;;;;;;6.28;3.22;;;;;;;;;;5052102;28;20076;-40
2022/11/14 11:14:34;;;;;;;6.13;4.00;;;;;;;;;;5052440;28;20497;-41
2022/11/14 11:17:20;;;;;;;6.55;3.42;;;;;;;;;;5051539;28;20071;-40
2022/11/14 11:20:22;;;;;;;7.30;3.67;;;;;;;;;;5052397;28;20114;-40
2022/11/14 11:23:09;;;;;;;5.50;3.42;;;;;;;;;;5052079;28;20036;-40
2022/11/14 11:26:07;;;;;;;7.20;3.85;;;;;;;;;;5052268;28;20091;-41
2022/11/14 11:29:01;;;;;;;6.75;3.88;;;;;;;;;;5051826;28;20044;-40
2022/11/14 11:31:57;;;;;;;6.28;3.55;;;;;;;;;;5051853;28;20098;-40
2022/11/14 11:34:41;;;;;;;5.63;3.75;;;;;;;;;;5052044;28;20059;-41
2022/11/14 11:37:38;;;;;;;5.43;3.85;;;;;;;;;;5051790;28;20044;-40
2022/11/14 11:40:24;;;;;;;8.02;3.45;;;;;;;;;;5051989;28;20052;-41
2022/11/14 11:43:08;;;;;;;5.45;2.95;;;;;;;;;;5051955;28;20051;-41
2022/11/14 11:45:53;;;;;;;5.50;3.45;;;;;;;;;;5052025;28;20702;-41
2022/11/14 11:48:38;;;;;;;5.82;3.35;;;;;;;;;;5051501;28;20099;-41
2022/11/14 11:51:23;;;;;;;9.63;4.38;;;;;;;;;;5051561;28;20087;-41
2022/11/14 11:54:13;;;;;;;7.90;5.22;;;;;;;;;;5051495;28;20576;-41
2022/11/14 11:56:59;;;;;;;6.95;3.80;;;;;;;;;;5051522;28;20087;-41
2022/11/14 12:00:07;;;;;;;6.97;3.45;;;;;;;;;;5051468;28;20521;-41
2022/11/14 12:02:52;;;;;;;9.38;4.25;;;;;;;;;;5051205;28;20124;-41
2022/11/14 12:05:45;;;;;;;5.75;4.63;;;;;;;;;;5051330;28;20044;-40
2022/11/14 12:08:32;;;;;;;6.80;3.67;;;;;;;;;;5050692;28;20076;-40
2022/11/14 12:11:18;;;;;;;6.78;3.70;;;;;;;;;;5050344;28;20163;-41
2022/11/14 12:14:02;;;;;;;6.38;4.38;;;;;;;;;;5051509;28;20036;-40
2022/11/14 12:16:49;;;;;;;7.13;4.43;;;;;;;;;;5051410;28;20095;-41
2022/11/14 12:19:33;;;;;;;6.30;4.25;;;;;;;;;;5051481;28;20387;-41
2022/11/14 12:22:17;;;;;;;7.63;3.45;;;;;;;;;;5051324;28;20121;-40
2022/11/14 12:25:04;;;;;;;6.53;3.28;;;;;;;;;;5051463;28;20075;-40
2022/11/14 12:27:51;;;;;;;5.50;3.42;;;;;;;;;;5051084;28;20083;-41
2022/11/14 12:30:36;;;;;;;5.28;3.17;;;;;;;;;;5051075;28;20047;-41
2022/11/14 12:33:31;;;;;;;7.40;3.67;;;;;;;;;;5051481;28;20048;-41
2022/11/14 12:36:15;;;;;;;4.63;2.80;;;;;;;;;;5055278;28;20095;-40
2022/11/14 12:39:00;;;;;;;7.85;3.70;;;;;;;;;;5055260;28;20510;-40
2022/11/14 12:41:44;;;;;;;7.53;3.20;;;;;;;;;;5055328;28;20094;-40
2022/11/14 12:44:27;;;;;;;6.88;3.75;;;;;;;;;;5055363;28;20549;-40
2022/11/14 12:47:13;;;;;;;7.53;3.80;;;;;;;;;;5054974;28;20063;-40
2022/11/14 12:49:58;;;;;;;5.85;2.70;;;;;;;;;;5055224;28;20454;-41
2022/11/14 12:52:44;;;;;;;5.53;3.13;;;;;;;;;;5054801;28;20505;-40
2022/11/14 12:55:27;;;;;;;6.72;3.55;;;;;;;;;;5055053;28;20435;-40
2022/11/14 12:58:30;;;;;;;9.52;4.18;;;;;;;;;;5054798;28;20083;-40
2022/11/14 13:01:23;;;;;;;6.50;2.97;;;;;;;;;;5054751;28;20052;-40
2022/11/14 13:04:26;;;;;;;5.45;2.90;;;;;;;;;;5054818;28;20060;-40
2022/11/14 13:07:24;;;;;;;8.40;3.37;;;;;;;;;;5054916;28;20086;-40
2022/11/14 13:10:08;;;;;;;6.35;3.70;;;;;;;;;;5054607;28;20060;-40
2022/11/14 13:22:40;;;;;;;4.22;2.97;;;;;;;;;;5054445;28;20387;-40
2022/11/14 13:25:24;;;;;;;8.20;3.55;;;;;;;;;;5054634;28;20040;-40
2022/11/14 13:28:27;;;;;;;5.65;3.22;;;;;;;;;;5054139;28;20091;-40
2022/11/14 13:31:14;;;;;;;6.30;3.20;;;;;;;;;;5054383;28;20175;-40
2022/11/14 13:33:58;;;;;;;7.85;3.45;;;;;;;;;;5054455;28;20455;-40
2022/11/14 13:37:01;;;;;;;4.32;2.25;;;;;;;;;;5054106;28;20537;-41
2022/11/14 13:39:51;;;;;;;5.43;2.75;;;;;;;;;;5054030;28;20060;-41
2022/11/14 13:42:47;;;;;;;7.60;3.10;;;;;;;;;;5053913;28;20044;-40
2022/11/14 13:45:50;;;;;;;6.50;3.38;;;;;;;;;;5053077;28;20120;-40
2022/11/14 13:48:53;;;;;;;5.38;3.08;;;;;;;;;;5052644;28;20110;-40
2022/11/14 13:51:37;;;;;;;4.50;2.87;;;;;;;;;;5053720;28;20146;-41
2022/11/14 13:54:22;;;;;;;5.88;3.03;;;;;;;;;;5053802;28;20044;-40
2022/11/14 13:57:14;;;;;;;6.65;3.70;;;;;;;;;;5052865;28;20083;-40
2022/11/14 14:00:11;;;;;;;5.10;3.08;;;;;;;;;;5053681;28;20032;-41
2022/11/14 14:02:55;;;;;;;10.00;3.40;;;;;;;;;;5053916;28;20509;-42
2022/11/14 14:05:53;;;;;;;6.32;3.35;;;;;;;;;;5053732;28;20044;-40
2022/11/14 14:08:40;;;;;;;6.80;3.10;;;;;;;;;;5053688;28;20051;-40
2022/11/14 14:11:30;;;;;;;6.28;2.95;;;;;;;;;;5053373;28;20118;-41
2022/11/14 14:14:17;;;;;;;6.00;3.35;;;;;;;;;;5053716;28;20102;-40
2022/11/14 14:17:13;;;;;;;5.28;3.20;;;;;;;;;;5053612;28;20040;-40
2022/11/14 14:19:57;;;;;;;6.28;3.30;;;;;;;;;;5053619;28;20123;-40
2022/11/14 14:23:11;;;;;;;3.08;2.45;;;;;;;;;;5053284;28;20040;-41
2022/11/14 14:25:58;;;;;;;4.38;2.63;;;;;;;;;;5052779;28;20489;-40
2022/11/14 14:28:55;;;;;;;3.53;2.72;;;;;;;;;;5053307;28;20099;-41
2022/11/14 14:31:40;;;;;;;7.10;4.38;;;;;;;;;;5052927;28;20056;-40
2022/11/14 14:34:28;;;;;;;4.93;3.15;;;;;;;;;;5053424;28;20083;-40
2022/11/14 14:37:22;;;;;;;6.93;3.75;;;;;;;;;;5053130;28;20044;-41
2022/11/14 14:40:10;;;;;;;5.35;2.97;;;;;;;;;;5052839;28;20039;-40
2022/11/14 14:42:56;;;;;;;6.35;3.20;;;;;;;;;;5053181;28;20453;-40
2022/11/14 14:45:45;;;;;;;5.28;3.72;;;;;;;;;;5053075;28;20145;-40
2022/11/14 14:48:30;;;;;;;8.23;3.35;;;;;;;;;;5052479;28;20609;-41
2022/11/14 14:51:27;;;;;;;7.38;3.22;;;;;;;;;;5052666;28;20082;-41
2022/11/14 14:54:19;;;;;;;7.88;3.25;;;;;;;;;;5052694;28;20318;-41
2022/11/14 14:57:03;;;;;;;6.95;3.40;;;;;;;;;;5052603;28;20044;-40
2022/11/14 14:59:57;;;;;;;6.50;3.22;;;;;;;;;;5062184;28;20513;-40
2022/11/14 15:02:41;;;;;;;7.03;4.10;;;;;;;;;;5032768;28;20079;-40
2022/11/14 15:05:27;;;;;;;6.45;4.28;;;;;;;;;;5032743;28;20084;-40
2022/11/14 15:08:12;;;;;;;8.40;3.42;;;;;;;;;;5032479;28;20577;-41
2022/11/14 15:10:58;;;;;;;5.45;2.88;;;;;;;;;;5032568;28;20052;-40
2022/11/14 15:13:44;;;;;;;5.70;3.13;;;;;;;;;;5032296;28;20094;-40
2022/11/14 15:16:28;;;;;;;3.90;2.83;;;;;;;;;;5032327;28;20095;-40
2022/11/14 15:19:14;;;;;;;5.57;3.08;;;;;;;;;;5032352;28;20028;-40
2022/11/14 15:22:18;;;;;;;5.30;2.67;;;;;;;;;;5032406;28;20044;-41
2022/11/14 15:25:03;;;;;;;5.03;2.78;;;;;;;;;;5031424;28;20041;-41
2022/11/14 15:27:53;;;;;;;6.07;3.65;;;;;;;;;;5032260;28;20071;-40
2022/11/14 15:30:38;;;;;;;5.68;3.53;;;;;;;;;;5031906;28;20052;-40
2022/11/14 15:33:29;;;;;;;7.38;3.30;;;;;;;;;;5032318;28;20052;-40
2022/11/14 15:36:16;;;;;;;7.70;3.55;;;;;;;;;;5032168;28;20079;-40
2022/11/14 15:39:05;;;;;;;6.63;3.20;;;;;;;;;;5032088;28;20088;-40
2022/11/14 15:41:49;;;;;;;5.28;2.92;;;;;;;;;;5032082;28;20060;-40
2022/11/14 15:44:33;;;;;;;6.78;3.40;;;;;;;;;;5031811;28;20044;-40
2022/11/14 15:47:27;;;;;;;9.07;3.10;;;;;;;;;;5031796;28;20088;-40
2022/11/14 15:50:11;;;;;;;6.78;3.33;;;;;;;;;;5031879;28;20518;-40
2022/11/14 15:53:25;;;;;;;6.40;3.85;;;;;;;;;;5031779;28;20545;-40
2022/11/14 15:56:15;;;;;;;5.90;3.72;;;;;;;;;;5031651;28;20060;-40
2022/11/14 15:58:58;;;;;;;7.07;3.35;;;;;;;;;;5031802;28;20529;-40
2022/11/14 16:01:43;;;;;;;7.00;3.38;;;;;;;;;;5031559;28;20064;-40
2022/11/14 16:04:37;;;;;;;6.60;3.53;;;;;;;;;;5031522;28;20103;-41
2022/11/14 16:07:22;;;;;;;4.68;3.13;;;;;;;;;;5031501;28;20121;-40
2022/11/14 16:10:26;;;;;;;5.18;3.22;;;;;;;;;;5031100;28;20121;-40
2022/11/14 16:13:10;;;;;;;5.70;3.63;;;;;;;;;;5031487;28;20088;-40
2022/11/14 16:15:53;;;;;;;6.55;3.33;;;;;;;;;;5031730;28;20040;-40
2022/11/14 16:18:38;;;;;;;6.57;3.35;;;;;;;;;;5031214;28;20427;-40
2022/11/14 16:21:21;;;;;;;3.80;2.75;;;;;;;;;;5031732;28;20039;-40
2022/11/14 16:24:06;;;;;;;6.32;3.35;;;;;;;;;;5031641;28;20610;-39
2022/11/14 16:26:50;;;;;;;4.85;2.58;;;;;;;;;;5030362;28;20047;-40
2022/11/14 16:29:34;;;;;;;6.32;4.00;;;;;;;;;;5031556;28;20086;-40
2022/11/14 16:32:18;;;;;;;4.30;3.17;;;;;;;;;;5031252;28;20052;-41
2022/11/14 16:35:01;;;;;;;4.70;2.75;;;;;;;;;;5031445;28;20546;-41
2022/11/14 16:37:46;;;;;;;6.30;2.88;;;;;;;;;;5031421;28;20156;-40
2022/11/14 16:40:30;;;;;;;5.22;3.47;;;;;;;;;;5031381;28;20094;-41
2022/11/14 16:43:14;;;;;;;4.45;2.35;;;;;;;;;;5031395;28;20083;-41
2022/11/14 16:46:01;;;;;;;7.18;3.63;;;;;;;;;;5031212;28;20040;-40
2022/11/14 16:48:45;;;;;;;6.28;3.78;;;;;;;;;;5030851;28;20068;-40